createdAt,value
2023-01-13T00:02:05.790Z,37.70
2023-01-13T00:04:32.993Z,28.63
2023-01-13T00:07:00.530Z,34.17
2023-01-13T00:09:30.123Z,38.88
2023-01-13T00:11:56.930Z,27.10
2023-01-13T00:14:26.275Z,28.48
2023-01-13T00:19:38.464Z,26.98
2023-01-13T00:22:06.446Z,41.80
2023-01-13T00:24:33.367Z,33.45
2023-01-13T00:27:00.549Z,31.73
2023-01-13T00:29:27.341Z,28.65
2023-01-13T00:31:55.449Z,24.75
2023-01-13T00:34:22.792Z,20.23
2023-01-13T00:44:55.967Z,18.63
2023-01-13T00:47:23.456Z,18.52
2023-01-13T00:49:50.353Z,20.50
2023-01-13T00:52:17.574Z,19.65
2023-01-13T00:54:44.476Z,23.80
2023-01-13T00:57:12.521Z,22.13
2023-01-13T00:59:39.341Z,21.80
2023-01-13T01:02:06.935Z,15.52
2023-01-13T01:04:34.218Z,22.17
2023-01-13T01:07:00.959Z,17.67
2023-01-13T01:12:14.424Z,16.95
2023-01-13T01:14:41.842Z,15.98
2023-01-13T01:17:11.878Z,16.92
2023-01-13T01:19:38.828Z,19.77
2023-01-13T01:22:06.080Z,16.33
2023-01-13T01:24:33.096Z,14.77
2023-01-13T01:35:33.511Z,33.55
2023-01-13T01:38:00.795Z,21.65
2023-01-13T01:40:27.959Z,27.92
2023-01-13T01:43:13.474Z,23.25
2023-01-13T01:45:40.254Z,24.02
2023-01-13T01:48:07.965Z,18.08
2023-01-13T01:50:35.976Z,17.15
2023-01-13T01:53:10.274Z,18.38
2023-01-13T01:55:38.473Z,19.00
2023-01-13T01:58:22.204Z,20.88
2023-01-13T02:00:49.111Z,20.27
2023-01-13T02:03:17.318Z,13.43
2023-01-13T02:06:43.667Z,15.25
2023-01-13T02:16:38.616Z,18.33
2023-01-13T02:24:44.824Z,14.55
2023-01-13T02:27:14.717Z,14.15
2023-01-13T02:30:14.282Z,18.05
2023-01-13T02:33:02.637Z,16.48
2023-01-13T02:40:59.414Z,15.90
2023-01-13T02:43:53.403Z,16.35
2023-01-13T02:46:39.398Z,16.35
2023-01-13T02:49:10.636Z,18.80
2023-01-13T02:51:41.352Z,17.20
2023-01-13T02:54:30.089Z,16.42
2023-01-13T02:56:59.780Z,17.50
2023-01-13T02:59:28.133Z,14.63
2023-01-13T03:01:57.589Z,12.45
2023-01-13T03:04:49.762Z,13.82
2023-01-13T03:07:34.686Z,13.80
2023-01-13T03:10:24.023Z,14.80
2023-01-13T03:13:07.703Z,13.20
2023-01-13T03:15:41.035Z,13.30
2023-01-13T03:18:19.496Z,15.68
2023-01-13T03:21:03.862Z,16.15
2023-01-13T03:23:40.332Z,24.17
2023-01-13T03:26:26.530Z,26.75
2023-01-13T03:29:06.626Z,29.13
2023-01-13T03:31:36.927Z,25.25
2023-01-13T03:34:09.955Z,32.20
2023-01-13T03:36:40.835Z,35.20
2023-01-13T03:41:48.919Z,31.17
2023-01-13T03:44:24.138Z,29.95
2023-01-13T03:47:13.167Z,24.65
2023-01-13T03:49:56.769Z,23.98
2023-01-13T03:55:26.518Z,18.23
2023-01-13T04:00:59.966Z,18.33
2023-01-13T04:03:50.818Z,13.85
2023-01-13T04:06:23.681Z,12.90
2023-01-13T04:09:01.704Z,15.20
2023-01-13T04:11:35.900Z,12.65
2023-01-13T04:22:42.561Z,11.43
2023-01-13T04:25:10.049Z,12.90
2023-01-13T04:27:37.105Z,13.15
2023-01-13T04:30:05.280Z,13.45
2023-01-13T04:38:17.910Z,11.77
2023-01-13T04:40:44.878Z,12.55
2023-01-13T04:45:57.068Z,11.55
2023-01-13T04:48:23.997Z,10.82
2023-01-13T04:50:50.879Z,13.80
2023-01-13T04:53:17.655Z,15.93
2023-01-13T04:58:19.901Z,11.88
2023-01-13T05:00:47.161Z,10.27
2023-01-13T05:29:22.470Z,13.77
2023-01-13T05:31:49.494Z,17.48
2023-01-13T05:34:16.559Z,17.90
2023-01-13T05:36:43.929Z,18.10
2023-01-13T05:39:10.755Z,18.17
2023-01-13T05:41:56.253Z,15.05
2023-01-13T05:44:23.087Z,14.35
2023-01-13T05:46:50.137Z,15.48
2023-01-13T05:49:16.974Z,21.50
2023-01-13T05:51:43.852Z,23.10
2023-01-13T05:54:10.644Z,18.83
2023-01-13T05:56:37.469Z,18.70
2023-01-13T05:59:04.903Z,22.23
2023-01-13T06:01:31.756Z,18.60
2023-01-13T06:03:58.729Z,25.42
2023-01-13T06:06:25.604Z,20.65
2023-01-13T06:08:52.396Z,20.48
2023-01-13T06:11:19.217Z,18.85
2023-01-13T06:13:46.355Z,21.48
2023-01-13T06:16:13.668Z,24.63
2023-01-13T06:18:40.903Z,15.27
2023-01-13T06:21:07.678Z,16.73
2023-01-13T06:41:42.683Z,26.05
2023-01-13T06:44:10.184Z,28.83
2023-01-13T06:46:37.846Z,29.17
2023-01-13T06:49:05.747Z,30.80
2023-01-13T06:51:32.680Z,24.98
2023-01-13T06:56:45.015Z,34.38
2023-01-13T06:59:11.848Z,29.85
2023-01-13T07:01:38.841Z,28.27
2023-01-13T07:09:53.540Z,57.00
2023-01-13T07:12:20.408Z,36.60
2023-01-13T07:23:04.183Z,39.95
2023-01-13T07:26:01.907Z,43.58
2023-01-13T07:32:03.984Z,49.63
2023-01-13T07:34:31.253Z,44.97
2023-01-13T07:36:58.066Z,43.38
2023-01-13T07:39:25.350Z,40.30
2023-01-13T07:42:11.452Z,37.20
2023-01-13T07:44:38.234Z,43.70
2023-01-13T07:47:06.044Z,43.85
2023-01-13T07:49:33.222Z,40.40
2023-01-13T07:52:00.016Z,39.92
2023-01-13T08:00:24.678Z,36.05
2023-01-13T08:02:51.591Z,34.97
2023-01-13T08:05:18.549Z,36.30
2023-01-13T08:07:45.383Z,30.55
2023-01-13T08:10:12.228Z,33.70
2023-01-13T08:12:58.258Z,32.63
2023-01-13T08:15:26.301Z,29.30
2023-01-13T08:17:53.189Z,31.05
2023-01-13T08:20:20.077Z,30.52
2023-01-13T08:25:23.829Z,32.40
2023-01-13T08:28:25.225Z,32.67
2023-01-13T08:33:54.500Z,31.98
2023-01-13T08:36:21.445Z,41.55
2023-01-13T08:41:42.568Z,35.20
2023-01-13T08:44:09.669Z,33.78
2023-01-13T09:02:04.371Z,50.30
2023-01-13T09:04:31.409Z,53.85
2023-01-13T09:07:18.599Z,65.35
2023-01-13T09:09:45.603Z,49.72
2023-01-13T09:12:33.391Z,37.58
2023-01-13T09:17:30.625Z,34.00
2023-01-13T09:19:57.429Z,35.70
2023-01-13T09:24:59.645Z,33.63
2023-01-13T09:27:26.466Z,39.85
2023-01-13T09:29:53.283Z,37.00
2023-01-13T09:43:53.510Z,39.17
2023-01-13T09:48:53.753Z,27.90
2023-01-13T09:55:06.526Z,23.77
2023-01-13T09:57:41.835Z,21.83
2023-01-13T10:03:48.697Z,18.52
2023-01-13T10:12:47.207Z,16.70
2023-01-13T10:15:38.288Z,16.25
2023-01-13T10:29:25.320Z,7.68
2023-01-13T10:31:56.305Z,6.97
2023-01-13T10:34:24.799Z,12.52
2023-01-13T10:37:04.535Z,6.22
2023-01-13T10:42:23.520Z,10.63
2023-01-13T10:45:01.685Z,9.63
2023-01-13T10:56:47.399Z,11.35
2023-01-13T10:59:18.724Z,11.13
2023-01-13T11:04:54.683Z,9.48
2023-01-13T11:07:53.237Z,10.07
2023-01-13T11:10:22.347Z,5.72
2023-01-13T11:13:15.970Z,9.05
2023-01-13T11:16:15.350Z,8.23
2023-01-13T11:19:02.835Z,7.75
2023-01-13T11:21:38.881Z,5.63
2023-01-13T11:24:36.873Z,6.97
2023-01-13T11:27:17.076Z,7.07
2023-01-13T11:36:30.589Z,8.90
2023-01-13T11:39:23.221Z,10.60
2023-01-13T11:42:23.433Z,7.50
2023-01-13T11:45:00.633Z,6.53
2023-01-13T11:47:28.693Z,5.97
2023-01-13T11:49:56.374Z,6.68
2023-01-13T11:53:01.771Z,23.05
2023-01-13T11:55:46.118Z,19.40
2023-01-13T11:58:45.661Z,18.23
2023-01-13T12:01:29.802Z,27.92
2023-01-13T12:04:20.973Z,46.53
2023-01-13T12:06:57.641Z,24.42
2023-01-13T12:09:24.420Z,8.50
2023-01-13T12:12:23.025Z,9.35
2023-01-13T12:15:21.411Z,27.40
2023-01-13T12:17:58.277Z,26.55
2023-01-13T12:20:44.174Z,18.52
2023-01-13T12:23:27.839Z,18.42
2023-01-13T12:26:04.811Z,18.52
2023-01-13T12:29:00.297Z,19.27
2023-01-13T12:31:28.745Z,18.17
2023-01-13T12:34:39.678Z,17.45
2023-01-13T12:37:20.021Z,16.42
2023-01-13T12:40:19.628Z,20.10
2023-01-13T12:43:17.003Z,20.08
2023-01-13T12:45:44.032Z,19.15
2023-01-13T12:48:59.288Z,20.50
2023-01-13T12:51:33.388Z,21.65
2023-01-13T12:54:02.345Z,23.88
2023-01-13T12:56:43.808Z,24.33
2023-01-13T12:59:19.904Z,22.77
2023-01-13T13:01:52.733Z,26.58
2023-01-13T13:04:41.383Z,27.08
2023-01-13T13:07:14.550Z,24.42
2023-01-13T13:09:52.366Z,26.52
2023-01-13T13:12:49.942Z,24.63
2023-01-13T13:15:25.518Z,26.08
2023-01-13T13:18:16.994Z,27.65
2023-01-13T13:20:54.176Z,26.75
2023-01-13T13:23:53.249Z,28.23
2023-01-13T13:26:20.547Z,30.83
2023-01-13T13:29:03.088Z,32.55
2023-01-13T13:32:01.174Z,27.08
2023-01-13T13:34:47.315Z,33.22
2023-01-13T13:37:32.833Z,28.92
2023-01-13T13:40:27.435Z,28.30
2023-01-13T13:43:17.148Z,31.92
2023-01-13T13:46:10.733Z,41.20
2023-01-13T13:48:39.756Z,34.13
2023-01-13T13:51:32.414Z,27.83
2023-01-13T13:54:02.808Z,29.15
2023-01-13T13:56:43.303Z,30.42
2023-01-13T13:59:13.217Z,29.55
2023-01-13T14:01:44.638Z,30.55
2023-01-13T14:04:26.173Z,25.95
2023-01-13T14:06:56.123Z,24.90
2023-01-13T14:14:53.997Z,27.17
2023-01-13T14:17:30.118Z,26.02
2023-01-13T14:20:02.573Z,26.08
2023-01-13T14:22:31.364Z,24.30
2023-01-13T14:25:04.568Z,23.88
2023-01-13T14:27:43.732Z,25.63
2023-01-13T14:30:13.344Z,22.65
2023-01-13T14:32:41.999Z,29.90
2023-01-13T14:35:10.905Z,27.17
2023-01-13T14:37:42.054Z,23.30
2023-01-13T14:40:49.489Z,26.20
2023-01-13T14:43:23.612Z,21.08
2023-01-13T14:46:05.235Z,22.75
2023-01-13T14:48:39.115Z,25.17
2023-01-13T14:51:11.830Z,24.50
2023-01-13T14:53:49.904Z,26.05
2023-01-13T14:56:39.303Z,26.25
2023-01-13T14:59:33.471Z,28.60
2023-01-13T15:02:05.916Z,30.92
2023-01-13T15:04:38.634Z,76.88
2023-01-13T15:07:22.957Z,56.15
2023-01-13T15:31:46.832Z,24.52
2023-01-13T15:37:20.273Z,25.88
2023-01-13T15:39:56.123Z,27.02
2023-01-13T15:48:28.718Z,29.90
2023-01-13T15:50:56.210Z,37.58
2023-01-13T15:53:24.197Z,35.90
2023-01-13T15:55:57.777Z,34.15
2023-01-13T15:58:28.274Z,35.13
2023-01-13T16:00:56.102Z,47.17
2023-01-13T16:03:23.367Z,47.55
2023-01-13T16:05:50.475Z,37.50
2023-01-13T16:08:19.734Z,40.80
2023-01-13T16:10:47.812Z,35.42
2023-01-13T16:13:17.259Z,54.40
2023-01-13T16:18:31.767Z,54.83
2023-01-13T16:20:58.782Z,51.17
2023-01-13T16:23:25.647Z,48.13
2023-01-13T16:25:52.682Z,48.67
2023-01-13T16:28:24.946Z,48.45
2023-01-13T16:30:52.008Z,51.55
2023-01-13T16:33:18.864Z,41.25
2023-01-13T16:36:10.654Z,31.75
2023-01-13T16:38:33.086Z,44.28
2023-01-13T16:41:00.012Z,32.17
2023-01-13T16:43:27.847Z,39.97
2023-01-13T16:45:54.781Z,47.85
2023-01-13T16:48:22.815Z,40.65
2023-01-13T16:50:49.761Z,45.20
2023-01-13T16:55:52.847Z,37.30
2023-01-13T16:58:21.556Z,34.55
2023-01-13T17:00:48.430Z,42.67
2023-01-13T17:03:21.353Z,37.63
2023-01-13T17:05:48.673Z,42.53
2023-01-13T17:08:18.193Z,42.00
2023-01-13T17:10:46.853Z,41.63
2023-01-13T17:13:16.823Z,38.65
2023-01-13T17:15:45.567Z,39.58
2023-01-13T17:18:13.524Z,45.38
2023-01-13T17:20:40.994Z,40.90
2023-01-13T17:25:54.676Z,37.08
2023-01-13T17:28:21.641Z,38.38
2023-01-13T17:30:48.444Z,40.20
2023-01-13T17:33:15.267Z,35.58
2023-01-13T17:35:42.142Z,28.70
2023-01-13T17:38:08.900Z,35.95
2023-01-13T17:40:37.181Z,37.58
2023-01-13T17:43:04.510Z,31.20
2023-01-13T17:45:31.323Z,32.78
2023-01-13T17:47:58.704Z,43.10
2023-01-13T17:50:31.226Z,38.85
2023-01-13T17:55:27.793Z,35.22
2023-01-13T17:57:55.065Z,32.22
2023-01-13T18:00:22.701Z,32.17
2023-01-13T18:02:49.597Z,33.47
2023-01-13T18:05:16.565Z,34.75
2023-01-13T18:07:43.483Z,36.08
2023-01-13T18:10:11.489Z,27.65
2023-01-13T18:12:38.426Z,30.52
2023-01-13T18:15:05.708Z,32.13
2023-01-13T18:17:33.039Z,32.05
2023-01-13T18:20:18.344Z,28.23
2023-01-13T18:23:04.020Z,28.00
2023-01-13T18:25:49.524Z,29.90
2023-01-13T18:28:17.007Z,28.50
2023-01-13T18:30:43.841Z,32.90
2023-01-13T18:33:10.899Z,33.42
2023-01-13T18:35:41.155Z,34.40
2023-01-13T18:38:08.600Z,36.72
2023-01-13T18:40:35.910Z,36.75
2023-01-13T18:43:02.951Z,34.88
2023-01-13T18:48:51.134Z,32.03
2023-01-13T18:51:26.264Z,33.30
2023-01-13T18:53:54.002Z,38.33
2023-01-13T18:56:20.895Z,36.80
2023-01-13T18:58:54.525Z,35.72
2023-01-13T19:01:26.358Z,36.58
2023-01-13T19:06:28.840Z,32.30
2023-01-13T19:09:01.807Z,39.25
2023-01-13T19:14:34.248Z,49.78
2023-01-13T19:17:01.309Z,52.97
2023-01-13T19:19:28.514Z,44.33
2023-01-13T19:21:56.455Z,43.47
2023-01-13T19:24:26.135Z,43.90
2023-01-13T19:26:54.567Z,39.80
2023-01-13T19:29:21.844Z,41.60
2023-01-13T19:31:48.736Z,40.72
2023-01-13T19:34:16.213Z,36.38
2023-01-13T19:36:43.065Z,36.72
2023-01-13T19:39:10.343Z,37.38
2023-01-13T19:41:55.938Z,38.42
2023-01-13T19:44:41.474Z,43.67
2023-01-13T19:47:08.753Z,49.38
2023-01-13T19:49:36.122Z,49.38
2023-01-13T19:52:04.028Z,43.47
2023-01-13T19:54:31.125Z,45.65
2023-01-13T19:56:58.255Z,45.10
2023-01-13T19:59:29.279Z,43.95
2023-01-13T20:02:00.893Z,40.15
2023-01-13T20:04:39.985Z,45.13
2023-01-13T20:07:08.035Z,39.58
2023-01-13T20:09:35.846Z,36.47
2023-01-13T20:12:17.914Z,39.03
2023-01-13T20:14:46.366Z,41.22
2023-01-13T20:17:14.666Z,35.55
2023-01-13T20:19:42.427Z,33.67
2023-01-13T20:22:10.376Z,33.03
2023-01-13T20:24:37.972Z,31.58
2023-01-13T20:27:05.942Z,32.33
2023-01-13T20:29:33.759Z,37.15
2023-01-13T20:32:00.624Z,33.90
2023-01-13T20:34:27.564Z,31.58
2023-01-13T20:36:54.431Z,27.02
2023-01-13T20:39:25.245Z,29.73
2023-01-13T20:42:11.077Z,37.33
2023-01-13T20:44:37.984Z,30.38
2023-01-13T20:47:05.079Z,36.03
2023-01-13T20:49:32.119Z,34.70
2023-01-13T20:51:59.114Z,35.08
2023-01-13T20:54:26.359Z,32.55
2023-01-13T20:56:54.080Z,32.55
2023-01-13T20:59:20.966Z,29.98
2023-01-13T21:01:48.413Z,29.15
2023-01-13T21:04:15.720Z,30.75
2023-01-13T21:06:42.624Z,33.83
2023-01-13T21:09:09.803Z,34.55
2023-01-13T21:11:55.426Z,29.08
2023-01-13T21:14:43.686Z,40.03
2023-01-13T21:17:32.314Z,54.38
2023-01-13T21:19:59.949Z,50.45
2023-01-13T21:22:27.129Z,50.50
2023-01-13T21:24:54.310Z,48.38
2023-01-13T21:27:21.424Z,57.03
2023-01-13T21:29:48.239Z,55.80
2023-01-13T21:32:15.464Z,58.97
2023-01-13T21:34:42.255Z,63.05
2023-01-13T21:37:09.228Z,57.80
2023-01-13T21:39:36.024Z,60.97
2023-01-13T21:42:21.427Z,56.90
2023-01-13T21:45:07.354Z,69.20
2023-01-13T21:47:49.860Z,62.45
2023-01-13T21:50:22.443Z,63.28
2023-01-13T21:52:50.587Z,70.00
2023-01-13T21:55:19.981Z,59.70
2023-01-13T21:57:54.747Z,55.78
2023-01-13T22:00:24.386Z,54.70
2023-01-13T22:02:51.507Z,61.17
2023-01-13T22:05:20.352Z,59.53
2023-01-13T22:07:47.296Z,56.78
2023-01-13T22:10:16.698Z,54.40
2023-01-13T22:12:43.841Z,51.92
2023-01-13T22:15:14.696Z,41.97
2023-01-13T22:17:43.220Z,44.95
2023-01-13T22:20:12.421Z,50.95
2023-01-13T22:22:39.516Z,41.20
2023-01-13T22:25:08.817Z,52.60
2023-01-13T22:27:40.706Z,50.67
2023-01-13T22:30:21.746Z,50.58
2023-01-13T22:32:48.780Z,44.47
2023-01-13T22:35:16.131Z,45.05
2023-01-13T22:37:43.103Z,44.45
2023-01-13T22:40:12.129Z,49.55
2023-01-13T22:42:42.996Z,50.15
2023-01-13T22:45:12.133Z,46.45
2023-01-13T22:47:39.005Z,48.25
2023-01-13T22:50:07.651Z,44.78
2023-01-13T22:56:18.402Z,42.45
2023-01-13T23:08:14.740Z,40.15
2023-01-13T23:10:41.998Z,37.42
2023-01-13T23:13:09.424Z,40.50
2023-01-13T23:15:36.754Z,39.72
2023-01-13T23:18:03.936Z,40.22
2023-01-13T23:20:31.020Z,46.97
2023-01-13T23:22:59.451Z,44.25
2023-01-13T23:28:28.172Z,52.58
2023-01-13T23:30:55.513Z,47.40
2023-01-13T23:33:22.962Z,47.65
2023-01-13T23:36:00.936Z,44.72
2023-01-13T23:38:28.540Z,39.58
2023-01-13T23:40:55.736Z,43.05
2023-01-13T23:43:24.044Z,44.28
2023-01-13T23:45:51.076Z,35.65
2023-01-13T23:49:04.470Z,35.08
2023-01-13T23:57:50.682Z,35.35
